sensor_id;sensor_type;location;lat;lon;timestamp;temperature;humidity
20345;DHT22;10330;48.816;9.278;2024-02-23T00:01:14;6.80;99.90
20345;DHT22;10330;48.816;9.278;2024-02-23T00:03:41;6.80;99.90
20345;DHT22;10330;48.816;9.278;2024-02-23T00:09:13;6.70;99.90
20345;DHT22;10330;48.816;9.278;2024-02-23T00:11:57;6.70;99.90
20345;DHT22;10330;48.816;9.278;2024-02-23T00:14:51;6.70;99.90
20345;DHT22;10330;48.816;9.278;2024-02-23T00:17:26;6.70;99.90
20345;DHT22;10330;48.816;9.278;2024-02-23T00:19:52;6.70;99.90
20345;DHT22;10330;48.816;9.278;2024-02-23T00:22:19;6.70;99.90
20345;DHT22;10330;48.816;9.278;2024-02-23T00:24:48;6.70;99.90
20345;DHT22;10330;48.816;9.278;2024-02-23T00:27:20;6.70;99.90
20345;DHT22;10330;48.816;9.278;2024-02-23T00:29:51;6.70;99.90
20345;DHT22;10330;48.816;9.278;2024-02-23T00:32:20;6.70;99.90
20345;DHT22;10330;48.816;9.278;2024-02-23T00:34:58;6.70;99.90
20345;DHT22;10330;48.816;9.278;2024-02-23T00:37:37;6.70;99.90
20345;DHT22;10330;48.816;9.278;2024-02-23T00:40:10;6.70;99.90
20345;DHT22;10330;48.816;9.278;2024-02-23T00:42:53;6.70;99.90
20345;DHT22;10330;48.816;9.278;2024-02-23T00:45:35;6.70;99.90
20345;DHT22;10330;48.816;9.278;2024-02-23T00:51:36;6.70;99.90
20345;DHT22;10330;48.816;9.278;2024-02-23T00:54:03;6.60;99.90
20345;DHT22;10330;48.816;9.278;2024-02-23T00:56:36;6.70;99.90
20345;DHT22;10330;48.816;9.278;2024-02-23T00:59:14;6.60;99.90
20345;DHT22;10330;48.816;9.278;2024-02-23T01:01:53;6.70;99.90
20345;DHT22;10330;48.816;9.278;2024-02-23T01:04:20;6.70;99.90
20345;DHT22;10330;48.816;9.278;2024-02-23T01:06:49;6.70;99.90
20345;DHT22;10330;48.816;9.278;2024-02-23T01:09:15;6.70;99.90
20345;DHT22;10330;48.816;9.278;2024-02-23T01:11:47;6.70;99.90
20345;DHT22;10330;48.816;9.278;2024-02-23T01:14:17;6.70;99.90
20345;DHT22;10330;48.816;9.278;2024-02-23T01:16:46;6.70;99.90
20345;DHT22;10330;48.816;9.278;2024-02-23T01:19:19;6.70;99.90
20345;DHT22;10330;48.816;9.278;2024-02-23T01:22:11;6.70;99.90
20345;DHT22;10330;48.816;9.278;2024-02-23T01:24:47;6.70;99.90
20345;DHT22;10330;48.816;9.278;2024-02-23T01:27:18;6.70;99.90
20345;DHT22;10330;48.816;9.278;2024-02-23T01:29:48;6.70;99.90
20345;DHT22;10330;48.816;9.278;2024-02-23T01:32:25;6.70;99.90
20345;DHT22;10330;48.816;9.278;2024-02-23T01:35:04;6.70;99.90
20345;DHT22;10330;48.816;9.278;2024-02-23T01:37:54;6.70;99.90
20345;DHT22;10330;48.816;9.278;2024-02-23T01:40:26;6.70;99.90
20345;DHT22;10330;48.816;9.278;2024-02-23T01:43:07;6.70;99.90
20345;DHT22;10330;48.816;9.278;2024-02-23T01:45:41;6.60;99.90
20345;DHT22;10330;48.816;9.278;2024-02-23T01:48:29;6.60;99.90
20345;DHT22;10330;48.816;9.278;2024-02-23T01:51:10;6.60;99.90
20345;DHT22;10330;48.816;9.278;2024-02-23T01:53:50;6.60;99.90
20345;DHT22;10330;48.816;9.278;2024-02-23T01:56:52;6.60;99.90
20345;DHT22;10330;48.816;9.278;2024-02-23T01:59:38;6.60;99.90
20345;DHT22;10330;48.816;9.278;2024-02-23T02:02:20;6.70;99.90
20345;DHT22;10330;48.816;9.278;2024-02-23T02:04:50;6.60;99.90
20345;DHT22;10330;48.816;9.278;2024-02-23T02:07:33;6.70;99.90
20345;DHT22;10330;48.816;9.278;2024-02-23T02:10:24;6.70;99.90
20345;DHT22;10330;48.816;9.278;2024-02-23T02:13:22;6.70;99.90
20345;DHT22;10330;48.816;9.278;2024-02-23T02:16:07;6.70;99.90
20345;DHT22;10330;48.816;9.278;2024-02-23T02:18:49;6.70;99.90
20345;DHT22;10330;48.816;9.278;2024-02-23T02:21:19;6.70;99.90
20345;DHT22;10330;48.816;9.278;2024-02-23T02:23:59;6.70;99.90
20345;DHT22;10330;48.816;9.278;2024-02-23T02:26:25;6.70;99.90
20345;DHT22;10330;48.816;9.278;2024-02-23T02:29:06;6.70;99.90
20345;DHT22;10330;48.816;9.278;2024-02-23T02:31:33;6.70;99.90
20345;DHT22;10330;48.816;9.278;2024-02-23T02:34:04;6.70;99.90
20345;DHT22;10330;48.816;9.278;2024-02-23T02:36:41;6.70;99.90
20345;DHT22;10330;48.816;9.278;2024-02-23T02:39:10;6.70;99.90
20345;DHT22;10330;48.816;9.278;2024-02-23T02:41:39;6.70;99.90
20345;DHT22;10330;48.816;9.278;2024-02-23T02:44:08;6.60;99.90
20345;DHT22;10330;48.816;9.278;2024-02-23T02:46:35;6.60;99.90
20345;DHT22;10330;48.816;9.278;2024-02-23T02:49:03;6.50;99.90
20345;DHT22;10330;48.816;9.278;2024-02-23T02:51:37;6.50;99.90
20345;DHT22;10330;48.816;9.278;2024-02-23T02:54:17;6.60;99.90
20345;DHT22;10330;48.816;9.278;2024-02-23T02:56:56;6.40;99.90
20345;DHT22;10330;48.816;9.278;2024-02-23T02:59:28;6.30;99.90
20345;DHT22;10330;48.816;9.278;2024-02-23T03:01:55;6.30;99.90
20345;DHT22;10330;48.816;9.278;2024-02-23T03:04:23;6.20;99.90
20345;DHT22;10330;48.816;9.278;2024-02-23T03:06:50;6.20;99.90
20345;DHT22;10330;48.816;9.278;2024-02-23T03:09:16;6.10;99.90
20345;DHT22;10330;48.816;9.278;2024-02-23T03:11:46;6.10;99.90
20345;DHT22;10330;48.816;9.278;2024-02-23T03:14:38;6.10;99.90
20345;DHT22;10330;48.816;9.278;2024-02-23T03:17:19;6.00;99.90
20345;DHT22;10330;48.816;9.278;2024-02-23T03:19:48;6.10;99.90
20345;DHT22;10330;48.816;9.278;2024-02-23T03:22:19;6.00;99.90
20345;DHT22;10330;48.816;9.278;2024-02-23T03:24:48;6.00;99.90
20345;DHT22;10330;48.816;9.278;2024-02-23T03:27:18;6.00;99.90
20345;DHT22;10330;48.816;9.278;2024-02-23T03:29:45;6.00;99.90
20345;DHT22;10330;48.816;9.278;2024-02-23T03:32:15;6.10;99.90
20345;DHT22;10330;48.816;9.278;2024-02-23T03:34:42;6.00;99.90
20345;DHT22;10330;48.816;9.278;2024-02-23T03:37:15;6.00;99.90
20345;DHT22;10330;48.816;9.278;2024-02-23T03:39:45;6.10;99.90
20345;DHT22;10330;48.816;9.278;2024-02-23T03:42:12;6.10;99.90
20345;DHT22;10330;48.816;9.278;2024-02-23T03:44:47;6.00;99.90
20345;DHT22;10330;48.816;9.278;2024-02-23T03:47:23;6.10;99.90
20345;DHT22;10330;48.816;9.278;2024-02-23T03:49:52;6.10;99.90
20345;DHT22;10330;48.816;9.278;2024-02-23T03:52:21;6.00;99.90
20345;DHT22;10330;48.816;9.278;2024-02-23T03:54:53;6.10;99.90
20345;DHT22;10330;48.816;9.278;2024-02-23T03:57:24;6.10;99.90
20345;DHT22;10330;48.816;9.278;2024-02-23T03:59:57;6.10;99.90
20345;DHT22;10330;48.816;9.278;2024-02-23T04:02:27;6.10;99.90
20345;DHT22;10330;48.816;9.278;2024-02-23T04:04:56;6.10;99.90
20345;DHT22;10330;48.816;9.278;2024-02-23T04:07:23;6.10;99.90
20345;DHT22;10330;48.816;9.278;2024-02-23T04:09:52;6.10;99.90
20345;DHT22;10330;48.816;9.278;2024-02-23T04:12:21;6.20;99.90
20345;DHT22;10330;48.816;9.278;2024-02-23T04:14:48;6.20;99.90
20345;DHT22;10330;48.816;9.278;2024-02-23T04:17:15;6.20;99.90
20345;DHT22;10330;48.816;9.278;2024-02-23T04:19:43;6.20;99.90
20345;DHT22;10330;48.816;9.278;2024-02-23T04:22:12;6.20;99.90
20345;DHT22;10330;48.816;9.278;2024-02-23T04:24:40;6.10;99.90
20345;DHT22;10330;48.816;9.278;2024-02-23T04:27:09;6.10;99.90
20345;DHT22;10330;48.816;9.278;2024-02-23T04:29:35;6.20;99.90
20345;DHT22;10330;48.816;9.278;2024-02-23T04:32:02;6.10;99.90
20345;DHT22;10330;48.816;9.278;2024-02-23T04:34:29;6.10;99.90
20345;DHT22;10330;48.816;9.278;2024-02-23T04:36:55;6.10;99.90
20345;DHT22;10330;48.816;9.278;2024-02-23T04:39:22;6.00;99.90
20345;DHT22;10330;48.816;9.278;2024-02-23T04:41:48;6.00;99.90
20345;DHT22;10330;48.816;9.278;2024-02-23T04:44:15;6.00;99.90
20345;DHT22;10330;48.816;9.278;2024-02-23T04:50:09;6.00;99.90
20345;DHT22;10330;48.816;9.278;2024-02-23T04:52:35;6.00;99.90
20345;DHT22;10330;48.816;9.278;2024-02-23T05:05:44;6.00;99.90
20345;DHT22;10330;48.816;9.278;2024-02-23T05:08:13;5.90;99.90
20345;DHT22;10330;48.816;9.278;2024-02-23T05:10:40;6.00;99.90
20345;DHT22;10330;48.816;9.278;2024-02-23T05:13:06;6.00;99.90
20345;DHT22;10330;48.816;9.278;2024-02-23T05:15:33;5.90;99.90
20345;DHT22;10330;48.816;9.278;2024-02-23T05:17:59;5.90;99.90
20345;DHT22;10330;48.816;9.278;2024-02-23T05:20:28;5.90;99.90
20345;DHT22;10330;48.816;9.278;2024-02-23T05:22:55;5.90;99.90
20345;DHT22;10330;48.816;9.278;2024-02-23T05:25:21;5.90;99.90
20345;DHT22;10330;48.816;9.278;2024-02-23T05:27:48;5.90;99.90
20345;DHT22;10330;48.816;9.278;2024-02-23T05:30:14;5.90;99.90
20345;DHT22;10330;48.816;9.278;2024-02-23T05:32:41;5.70;99.90
20345;DHT22;10330;48.816;9.278;2024-02-23T05:35:07;5.80;99.90
20345;DHT22;10330;48.816;9.278;2024-02-23T05:37:35;5.90;99.90
20345;DHT22;10330;48.816;9.278;2024-02-23T05:40:02;5.80;99.90
20345;DHT22;10330;48.816;9.278;2024-02-23T05:42:32;5.80;99.90
20345;DHT22;10330;48.816;9.278;2024-02-23T05:44:59;5.80;99.90
20345;DHT22;10330;48.816;9.278;2024-02-23T05:47:28;5.70;99.90
20345;DHT22;10330;48.816;9.278;2024-02-23T05:49:55;5.70;99.90
20345;DHT22;10330;48.816;9.278;2024-02-23T05:52:22;5.80;99.90
20345;DHT22;10330;48.816;9.278;2024-02-23T05:54:48;5.70;99.90
20345;DHT22;10330;48.816;9.278;2024-02-23T05:57:15;5.60;99.90
20345;DHT22;10330;48.816;9.278;2024-02-23T05:59:41;5.70;99.90
20345;DHT22;10330;48.816;9.278;2024-02-23T06:02:11;5.70;99.90
20345;DHT22;10330;48.816;9.278;2024-02-23T06:04:38;5.60;99.90
20345;DHT22;10330;48.816;9.278;2024-02-23T06:07:09;5.60;99.90
20345;DHT22;10330;48.816;9.278;2024-02-23T06:09:38;5.60;99.90
20345;DHT22;10330;48.816;9.278;2024-02-23T06:12:05;5.60;99.90
20345;DHT22;10330;48.816;9.278;2024-02-23T06:14:31;5.50;99.90
20345;DHT22;10330;48.816;9.278;2024-02-23T06:16:57;5.50;99.90
20345;DHT22;10330;48.816;9.278;2024-02-23T06:19:24;5.50;99.90
20345;DHT22;10330;48.816;9.278;2024-02-23T06:21:50;5.50;99.90
20345;DHT22;10330;48.816;9.278;2024-02-23T06:24:16;5.50;99.90
20345;DHT22;10330;48.816;9.278;2024-02-23T06:26:43;5.50;99.90
20345;DHT22;10330;48.816;9.278;2024-02-23T06:29:09;5.50;99.90
20345;DHT22;10330;48.816;9.278;2024-02-23T06:31:37;5.50;99.90
20345;DHT22;10330;48.816;9.278;2024-02-23T06:34:05;5.40;99.90
20345;DHT22;10330;48.816;9.278;2024-02-23T06:36:31;5.50;99.90
20345;DHT22;10330;48.816;9.278;2024-02-23T06:38:57;5.40;99.90
20345;DHT22;10330;48.816;9.278;2024-02-23T06:41:23;5.50;99.90
20345;DHT22;10330;48.816;9.278;2024-02-23T06:43:54;5.40;99.90
20345;DHT22;10330;48.816;9.278;2024-02-23T06:46:21;5.40;99.90
20345;DHT22;10330;48.816;9.278;2024-02-23T06:48:47;5.40;99.90
20345;DHT22;10330;48.816;9.278;2024-02-23T06:51:13;5.40;99.90
20345;DHT22;10330;48.816;9.278;2024-02-23T06:53:40;5.50;99.90
20345;DHT22;10330;48.816;9.278;2024-02-23T06:56:06;5.50;99.90
20345;DHT22;10330;48.816;9.278;2024-02-23T06:58:32;5.60;99.90
20345;DHT22;10330;48.816;9.278;2024-02-23T07:00:58;5.50;99.90
20345;DHT22;10330;48.816;9.278;2024-02-23T07:03:26;5.60;99.90
20345;DHT22;10330;48.816;9.278;2024-02-23T07:05:52;5.60;99.90
20345;DHT22;10330;48.816;9.278;2024-02-23T07:08:18;5.60;99.90
20345;DHT22;10330;48.816;9.278;2024-02-23T07:10:44;5.60;99.90
20345;DHT22;10330;48.816;9.278;2024-02-23T07:13:11;5.60;99.90
20345;DHT22;10330;48.816;9.278;2024-02-23T07:15:37;5.60;99.90
20345;DHT22;10330;48.816;9.278;2024-02-23T07:18:04;5.60;99.90
20345;DHT22;10330;48.816;9.278;2024-02-23T07:20:30;5.60;99.90
20345;DHT22;10330;48.816;9.278;2024-02-23T07:22:56;5.70;99.90
20345;DHT22;10330;48.816;9.278;2024-02-23T07:25:22;5.60;99.90
20345;DHT22;10330;48.816;9.278;2024-02-23T07:27:49;5.60;99.90
20345;DHT22;10330;48.816;9.278;2024-02-23T07:30:15;5.60;99.90
20345;DHT22;10330;48.816;9.278;2024-02-23T07:32:45;5.50;99.90
20345;DHT22;10330;48.816;9.278;2024-02-23T07:35:14;5.60;99.90
20345;DHT22;10330;48.816;9.278;2024-02-23T07:37:40;5.50;99.90
20345;DHT22;10330;48.816;9.278;2024-02-23T07:40:07;5.60;99.90
20345;DHT22;10330;48.816;9.278;2024-02-23T07:42:33;5.60;99.90
20345;DHT22;10330;48.816;9.278;2024-02-23T07:45:03;5.60;99.90
20345;DHT22;10330;48.816;9.278;2024-02-23T07:47:33;5.70;99.90
20345;DHT22;10330;48.816;9.278;2024-02-23T07:50:00;5.70;99.90
20345;DHT22;10330;48.816;9.278;2024-02-23T07:52:26;5.80;99.90
20345;DHT22;10330;48.816;9.278;2024-02-23T07:54:53;5.80;99.90
20345;DHT22;10330;48.816;9.278;2024-02-23T07:57:20;5.90;99.90
20345;DHT22;10330;48.816;9.278;2024-02-23T07:59:46;5.90;99.90
20345;DHT22;10330;48.816;9.278;2024-02-23T08:02:14;5.90;99.90
20345;DHT22;10330;48.816;9.278;2024-02-23T08:04:40;6.00;99.90
20345;DHT22;10330;48.816;9.278;2024-02-23T08:07:08;6.00;99.90
20345;DHT22;10330;48.816;9.278;2024-02-23T08:09:34;5.90;99.90
20345;DHT22;10330;48.816;9.278;2024-02-23T08:12:01;5.90;99.90
20345;DHT22;10330;48.816;9.278;2024-02-23T08:14:27;5.90;99.90
20345;DHT22;10330;48.816;9.278;2024-02-23T08:16:53;5.90;99.90
20345;DHT22;10330;48.816;9.278;2024-02-23T08:19:20;5.90;99.90
20345;DHT22;10330;48.816;9.278;2024-02-23T08:21:46;5.90;99.90
20345;DHT22;10330;48.816;9.278;2024-02-23T08:24:13;5.90;99.90
20345;DHT22;10330;48.816;9.278;2024-02-23T08:26:39;5.90;99.90
20345;DHT22;10330;48.816;9.278;2024-02-23T08:29:06;5.90;99.90
20345;DHT22;10330;48.816;9.278;2024-02-23T08:31:34;5.90;99.90
20345;DHT22;10330;48.816;9.278;2024-02-23T08:34:01;5.90;99.90
20345;DHT22;10330;48.816;9.278;2024-02-23T08:36:27;5.90;99.90
20345;DHT22;10330;48.816;9.278;2024-02-23T08:38:53;6.00;99.90
20345;DHT22;10330;48.816;9.278;2024-02-23T08:41:19;6.00;99.90
20345;DHT22;10330;48.816;9.278;2024-02-23T08:43:45;6.00;99.90
20345;DHT22;10330;48.816;9.278;2024-02-23T08:46:12;6.00;99.90
20345;DHT22;10330;48.816;9.278;2024-02-23T08:48:38;6.10;99.90
20345;DHT22;10330;48.816;9.278;2024-02-23T08:51:05;6.10;99.90
20345;DHT22;10330;48.816;9.278;2024-02-23T08:53:31;6.10;99.90
20345;DHT22;10330;48.816;9.278;2024-02-23T08:55:57;6.20;99.90
20345;DHT22;10330;48.816;9.278;2024-02-23T08:58:23;6.20;99.90
20345;DHT22;10330;48.816;9.278;2024-02-23T09:00:50;6.20;99.90
20345;DHT22;10330;48.816;9.278;2024-02-23T09:03:16;6.20;99.90
20345;DHT22;10330;48.816;9.278;2024-02-23T09:05:42;6.30;99.90
20345;DHT22;10330;48.816;9.278;2024-02-23T09:08:09;6.30;99.90
20345;DHT22;10330;48.816;9.278;2024-02-23T09:10:36;6.30;99.90
20345;DHT22;10330;48.816;9.278;2024-02-23T09:13:02;6.30;99.90
20345;DHT22;10330;48.816;9.278;2024-02-23T09:15:29;6.30;99.90
20345;DHT22;10330;48.816;9.278;2024-02-23T09:17:55;6.20;99.90
20345;DHT22;10330;48.816;9.278;2024-02-23T09:20:21;6.20;99.90
20345;DHT22;10330;48.816;9.278;2024-02-23T09:22:48;6.20;99.90
20345;DHT22;10330;48.816;9.278;2024-02-23T09:25:15;6.30;99.90
20345;DHT22;10330;48.816;9.278;2024-02-23T09:27:41;6.40;99.90
20345;DHT22;10330;48.816;9.278;2024-02-23T09:30:11;6.50;99.90
20345;DHT22;10330;48.816;9.278;2024-02-23T09:32:38;6.50;99.90
20345;DHT22;10330;48.816;9.278;2024-02-23T09:35:04;6.50;99.90
20345;DHT22;10330;48.816;9.278;2024-02-23T09:37:32;6.50;99.90
20345;DHT22;10330;48.816;9.278;2024-02-23T09:39:58;6.40;99.90
20345;DHT22;10330;48.816;9.278;2024-02-23T09:42:28;6.50;99.90
20345;DHT22;10330;48.816;9.278;2024-02-23T09:45:01;6.60;99.90
20345;DHT22;10330;48.816;9.278;2024-02-23T09:47:28;6.60;99.90
20345;DHT22;10330;48.816;9.278;2024-02-23T09:49:55;6.70;99.90
20345;DHT22;10330;48.816;9.278;2024-02-23T09:52:22;6.70;99.90
20345;DHT22;10330;48.816;9.278;2024-02-23T09:54:49;6.90;99.90
20345;DHT22;10330;48.816;9.278;2024-02-23T09:57:16;6.80;99.90
20345;DHT22;10330;48.816;9.278;2024-02-23T09:59:44;6.80;99.90
20345;DHT22;10330;48.816;9.278;2024-02-23T10:02:15;6.80;99.90
20345;DHT22;10330;48.816;9.278;2024-02-23T10:04:43;6.90;99.90
20345;DHT22;10330;48.816;9.278;2024-02-23T10:07:10;7.10;99.90
20345;DHT22;10330;48.816;9.278;2024-02-23T10:09:36;7.00;99.90
20345;DHT22;10330;48.816;9.278;2024-02-23T10:12:03;7.00;99.90
20345;DHT22;10330;48.816;9.278;2024-02-23T10:14:29;7.20;99.90
20345;DHT22;10330;48.816;9.278;2024-02-23T10:16:55;7.30;99.90
20345;DHT22;10330;48.816;9.278;2024-02-23T10:19:22;7.40;99.90
20345;DHT22;10330;48.816;9.278;2024-02-23T10:21:55;7.50;99.90
20345;DHT22;10330;48.816;9.278;2024-02-23T10:24:25;7.40;99.90
20345;DHT22;10330;48.816;9.278;2024-02-23T10:26:51;7.50;99.90
20345;DHT22;10330;48.816;9.278;2024-02-23T10:29:18;7.60;99.90
20345;DHT22;10330;48.816;9.278;2024-02-23T10:31:47;7.60;99.90
20345;DHT22;10330;48.816;9.278;2024-02-23T10:34:19;7.60;99.90
20345;DHT22;10330;48.816;9.278;2024-02-23T10:36:45;7.60;99.90
20345;DHT22;10330;48.816;9.278;2024-02-23T10:39:18;7.50;99.90
20345;DHT22;10330;48.816;9.278;2024-02-23T10:41:55;7.50;99.90
20345;DHT22;10330;48.816;9.278;2024-02-23T10:44:22;7.40;99.90
20345;DHT22;10330;48.816;9.278;2024-02-23T10:46:50;7.50;99.90
20345;DHT22;10330;48.816;9.278;2024-02-23T10:49:17;7.50;99.90
20345;DHT22;10330;48.816;9.278;2024-02-23T10:51:46;7.70;99.90
20345;DHT22;10330;48.816;9.278;2024-02-23T10:54:14;7.70;99.90
20345;DHT22;10330;48.816;9.278;2024-02-23T10:56:46;7.90;99.90
20345;DHT22;10330;48.816;9.278;2024-02-23T10:59:13;7.80;99.90
20345;DHT22;10330;48.816;9.278;2024-02-23T11:01:39;7.90;99.90
20345;DHT22;10330;48.816;9.278;2024-02-23T11:04:07;7.90;99.90
20345;DHT22;10330;48.816;9.278;2024-02-23T11:06:34;8.00;99.90
20345;DHT22;10330;48.816;9.278;2024-02-23T11:09:08;8.10;99.90
20345;DHT22;10330;48.816;9.278;2024-02-23T11:11:37;8.20;99.90
20345;DHT22;10330;48.816;9.278;2024-02-23T11:14:07;8.30;99.90
20345;DHT22;10330;48.816;9.278;2024-02-23T11:16:38;8.20;99.90
20345;DHT22;10330;48.816;9.278;2024-02-23T11:19:07;8.30;99.90
20345;DHT22;10330;48.816;9.278;2024-02-23T11:21:36;8.40;99.90
20345;DHT22;10330;48.816;9.278;2024-02-23T11:24:05;8.30;99.90
20345;DHT22;10330;48.816;9.278;2024-02-23T11:26:41;8.40;99.90
20345;DHT22;10330;48.816;9.278;2024-02-23T11:29:12;8.30;99.90
20345;DHT22;10330;48.816;9.278;2024-02-23T11:31:44;8.40;99.90
20345;DHT22;10330;48.816;9.278;2024-02-23T11:34:27;8.40;99.90
20345;DHT22;10330;48.816;9.278;2024-02-23T11:37:16;8.50;99.90
20345;DHT22;10330;48.816;9.278;2024-02-23T11:39:45;8.40;99.90
20345;DHT22;10330;48.816;9.278;2024-02-23T11:42:12;8.50;99.90
20345;DHT22;10330;48.816;9.278;2024-02-23T11:44:39;8.60;99.90
20345;DHT22;10330;48.816;9.278;2024-02-23T11:47:12;8.80;99.90
20345;DHT22;10330;48.816;9.278;2024-02-23T11:49:47;8.90;99.90
20345;DHT22;10330;48.816;9.278;2024-02-23T11:52:14;8.90;99.90
20345;DHT22;10330;48.816;9.278;2024-02-23T11:54:41;8.70;99.90
20345;DHT22;10330;48.816;9.278;2024-02-23T11:57:07;8.70;99.90
20345;DHT22;10330;48.816;9.278;2024-02-23T11:59:34;8.70;99.90
20345;DHT22;10330;48.816;9.278;2024-02-23T12:02:09;8.70;99.90
20345;DHT22;10330;48.816;9.278;2024-02-23T12:04:43;8.80;99.90
20345;DHT22;10330;48.816;9.278;2024-02-23T12:07:11;8.80;99.90
20345;DHT22;10330;48.816;9.278;2024-02-23T12:09:41;8.60;99.90
20345;DHT22;10330;48.816;9.278;2024-02-23T12:12:08;8.60;99.90
20345;DHT22;10330;48.816;9.278;2024-02-23T12:25:53;8.80;99.90
20345;DHT22;10330;48.816;9.278;2024-02-23T12:28:40;8.90;99.90
20345;DHT22;10330;48.816;9.278;2024-02-23T12:31:07;8.90;99.90
20345;DHT22;10330;48.816;9.278;2024-02-23T12:34:25;9.00;99.90
20345;DHT22;10330;48.816;9.278;2024-02-23T12:36:55;9.00;99.90
20345;DHT22;10330;48.816;9.278;2024-02-23T12:42:55;9.00;99.90
20345;DHT22;10330;48.816;9.278;2024-02-23T12:45:27;8.80;99.90
20345;DHT22;10330;48.816;9.278;2024-02-23T12:48:00;9.00;99.90
20345;DHT22;10330;48.816;9.278;2024-02-23T12:50:30;9.10;99.90
20345;DHT22;10330;48.816;9.278;2024-02-23T12:52:57;9.00;99.90
20345;DHT22;10330;48.816;9.278;2024-02-23T12:55:40;9.00;99.90
20345;DHT22;10330;48.816;9.278;2024-02-23T12:58:37;8.90;99.90
20345;DHT22;10330;48.816;9.278;2024-02-23T13:01:05;9.00;99.90
20345;DHT22;10330;48.816;9.278;2024-02-23T13:06:52;9.10;99.90
20345;DHT22;10330;48.816;9.278;2024-02-23T13:09:36;9.10;99.90
20345;DHT22;10330;48.816;9.278;2024-02-23T13:12:21;9.00;99.90
20345;DHT22;10330;48.816;9.278;2024-02-23T13:14:51;9.10;99.90
20345;DHT22;10330;48.816;9.278;2024-02-23T13:17:35;9.10;99.90
20345;DHT22;10330;48.816;9.278;2024-02-23T13:20:02;9.10;99.90
20345;DHT22;10330;48.816;9.278;2024-02-23T13:22:41;9.10;99.90
20345;DHT22;10330;48.816;9.278;2024-02-23T13:25:10;8.90;99.90
20345;DHT22;10330;48.816;9.278;2024-02-23T13:27:36;8.90;99.90
20345;DHT22;10330;48.816;9.278;2024-02-23T13:30:03;9.10;99.90
20345;DHT22;10330;48.816;9.278;2024-02-23T13:32:35;9.20;99.90
20345;DHT22;10330;48.816;9.278;2024-02-23T13:35:05;9.30;99.90
20345;DHT22;10330;48.816;9.278;2024-02-23T13:37:35;9.30;99.90
20345;DHT22;10330;48.816;9.278;2024-02-23T13:44:32;9.30;99.90
20345;DHT22;10330;48.816;9.278;2024-02-23T13:47:35;9.20;99.90
20345;DHT22;10330;48.816;9.278;2024-02-23T13:50:05;9.10;99.90
20345;DHT22;10330;48.816;9.278;2024-02-23T13:52:34;9.20;99.90
20345;DHT22;10330;48.816;9.278;2024-02-23T13:55:01;9.20;99.90
20345;DHT22;10330;48.816;9.278;2024-02-23T14:01:01;9.00;99.90
20345;DHT22;10330;48.816;9.278;2024-02-23T14:03:51;9.20;99.90
20345;DHT22;10330;48.816;9.278;2024-02-23T14:06:17;9.20;99.90
20345;DHT22;10330;48.816;9.278;2024-02-23T14:08:46;9.30;99.90
20345;DHT22;10330;48.816;9.278;2024-02-23T14:11:14;9.20;99.90
20345;DHT22;10330;48.816;9.278;2024-02-23T14:13:46;9.20;99.90
20345;DHT22;10330;48.816;9.278;2024-02-23T14:16:24;9.10;99.90
20345;DHT22;10330;48.816;9.278;2024-02-23T14:18:51;9.20;99.90
20345;DHT22;10330;48.816;9.278;2024-02-23T14:21:53;9.20;99.90
20345;DHT22;10330;48.816;9.278;2024-02-23T14:25:03;9.20;99.90
20345;DHT22;10330;48.816;9.278;2024-02-23T14:34:00;9.50;99.90
20345;DHT22;10330;48.816;9.278;2024-02-23T14:36:52;9.50;99.90
20345;DHT22;10330;48.816;9.278;2024-02-23T14:39:25;9.50;99.90
20345;DHT22;10330;48.816;9.278;2024-02-23T14:45:03;9.50;99.90
20345;DHT22;10330;48.816;9.278;2024-02-23T14:47:51;9.50;99.90
20345;DHT22;10330;48.816;9.278;2024-02-23T14:53:44;9.50;99.90
20345;DHT22;10330;48.816;9.278;2024-02-23T14:56:27;9.60;99.90
20345;DHT22;10330;48.816;9.278;2024-02-23T14:59:34;9.90;99.90
20345;DHT22;10330;48.816;9.278;2024-02-23T15:02:43;10.10;99.90
20345;DHT22;10330;48.816;9.278;2024-02-23T15:19:33;9.70;99.90
20345;DHT22;10330;48.816;9.278;2024-02-23T15:22:10;9.50;99.90
20345;DHT22;10330;48.816;9.278;2024-02-23T15:24:42;9.30;99.90
20345;DHT22;10330;48.816;9.278;2024-02-23T15:35:50;9.00;99.90
20345;DHT22;10330;48.816;9.278;2024-02-23T15:50:49;8.90;99.90
20345;DHT22;10330;48.816;9.278;2024-02-23T15:53:26;8.80;99.90
20345;DHT22;10330;48.816;9.278;2024-02-23T15:56:16;8.90;99.90
20345;DHT22;10330;48.816;9.278;2024-02-23T16:03:35;8.80;99.90
20345;DHT22;10330;48.816;9.278;2024-02-23T16:06:14;8.80;99.90
20345;DHT22;10330;48.816;9.278;2024-02-23T16:09:11;8.70;99.90
20345;DHT22;10330;48.816;9.278;2024-02-23T16:12:14;8.70;99.90
20345;DHT22;10330;48.816;9.278;2024-02-23T16:26:01;8.90;99.90
20345;DHT22;10330;48.816;9.278;2024-02-23T17:12:23;8.00;99.90
20345;DHT22;10330;48.816;9.278;2024-02-23T17:15:36;8.00;99.90
20345;DHT22;10330;48.816;9.278;2024-02-23T17:18:58;7.90;99.90
20345;DHT22;10330;48.816;9.278;2024-02-23T17:21:28;7.90;99.90
20345;DHT22;10330;48.816;9.278;2024-02-23T17:26:51;7.90;99.90
20345;DHT22;10330;48.816;9.278;2024-02-23T17:29:47;7.80;99.90
20345;DHT22;10330;48.816;9.278;2024-02-23T17:32:27;7.80;99.90
20345;DHT22;10330;48.816;9.278;2024-02-23T17:35:08;7.80;99.90
20345;DHT22;10330;48.816;9.278;2024-02-23T17:37:44;7.80;99.90
20345;DHT22;10330;48.816;9.278;2024-02-23T17:43:36;7.80;99.90
20345;DHT22;10330;48.816;9.278;2024-02-23T17:46:19;7.80;99.90
20345;DHT22;10330;48.816;9.278;2024-02-23T17:49:14;7.80;99.90
20345;DHT22;10330;48.816;9.278;2024-02-23T17:51:46;7.90;99.90
20345;DHT22;10330;48.816;9.278;2024-02-23T17:54:20;7.80;99.90
20345;DHT22;10330;48.816;9.278;2024-02-23T17:56:55;7.80;99.90
20345;DHT22;10330;48.816;9.278;2024-02-23T17:59:40;7.80;99.90
20345;DHT22;10330;48.816;9.278;2024-02-23T18:02:27;7.80;99.90
20345;DHT22;10330;48.816;9.278;2024-02-23T18:08:12;7.70;99.90
20345;DHT22;10330;48.816;9.278;2024-02-23T18:11:02;7.70;99.90
20345;DHT22;10330;48.816;9.278;2024-02-23T18:13:31;7.70;99.90
20345;DHT22;10330;48.816;9.278;2024-02-23T18:16:13;7.70;99.90
20345;DHT22;10330;48.816;9.278;2024-02-23T18:19:29;7.60;99.90
20345;DHT22;10330;48.816;9.278;2024-02-23T18:21:59;7.60;99.90
20345;DHT22;10330;48.816;9.278;2024-02-23T18:24:29;7.50;99.90
20345;DHT22;10330;48.816;9.278;2024-02-23T18:30:55;7.40;99.90
20345;DHT22;10330;48.816;9.278;2024-02-23T18:33:27;7.40;99.90
20345;DHT22;10330;48.816;9.278;2024-02-23T18:36:12;7.30;99.90
20345;DHT22;10330;48.816;9.278;2024-02-23T18:38:45;7.30;99.90
20345;DHT22;10330;48.816;9.278;2024-02-23T18:41:12;7.20;99.90
20345;DHT22;10330;48.816;9.278;2024-02-23T18:43:41;7.20;99.90
20345;DHT22;10330;48.816;9.278;2024-02-23T18:46:08;7.10;99.90
20345;DHT22;10330;48.816;9.278;2024-02-23T18:48:38;7.10;99.90
20345;DHT22;10330;48.816;9.278;2024-02-23T18:51:06;7.10;99.90
20345;DHT22;10330;48.816;9.278;2024-02-23T18:53:35;7.10;99.90
20345;DHT22;10330;48.816;9.278;2024-02-23T18:56:07;7.00;99.90
20345;DHT22;10330;48.816;9.278;2024-02-23T18:58:37;7.00;99.90
20345;DHT22;10330;48.816;9.278;2024-02-23T19:01:03;7.00;99.90
20345;DHT22;10330;48.816;9.278;2024-02-23T19:03:33;6.90;99.90